Time;durP1;ratioP1;P1;durP2;ratioP2;P2;SDS_P1;SDS_P2;PMS_P1;PMS_P2;Temp;Humidity;BMP_temperature;BMP_pressure;BME280_temperature;BME280_humidity;BME280_pressure;Samples;Min_cycle;Max_cycle;Signal;HPM_P1;HPM_P2
2023/01/18 00:01:20;;;;;;;129.40;83.50;;;;;;;-0.03;69.07;98099.97;111059;1258;21964;-84
2023/01/18 00:03:48;;;;;;;130.50;80.70;;;;;;;-0.03;69.19;98098.74;111182;1258;21977;-83
2023/01/18 00:06:16;;;;;;;125.10;81.20;;;;;;;0.03;69.29;98100.98;111234;1258;22639;-83
2023/01/18 00:08:44;;;;;;;117.70;76.40;;;;;;;0.08;69.30;98099.30;111030;1258;23039;-87
2023/01/18 00:11:17;;;;;;;116.70;76.70;;;;;;;0.11;69.14;98098.85;111052;1258;22006;-84
2023/01/18 00:13:46;;;;;;;116.70;73.70;;;;;;;0.14;69.27;98092.59;111107;1258;21962;-85
2023/01/18 00:16:20;;;;;;;105.20;72.80;;;;;;;0.19;69.47;98088.84;111163;1258;21985;-84
2023/01/18 00:18:54;;;;;;;95.30;67.00;;;;;;;0.24;69.56;98087.64;111182;1250;21958;-83
2023/01/18 00:21:25;;;;;;;99.80;66.10;;;;;;;0.29;69.48;98079.27;111163;1258;22391;-83
2023/01/18 00:23:55;;;;;;;96.40;62.40;;;;;;;0.34;69.61;98073.30;111188;1258;21970;-85
2023/01/18 00:26:23;;;;;;;96.40;63.40;;;;;;;0.40;69.64;98070.35;111128;1259;22359;-83
2023/01/18 00:28:51;;;;;;;92.90;65.70;;;;;;;0.46;69.66;98062.14;111262;1259;23236;-82
2023/01/18 00:31:20;;;;;;;91.60;64.00;;;;;;;0.50;69.50;98057.39;110972;1259;21992;-82
2023/01/18 00:33:49;;;;;;;101.20;68.80;;;;;;;0.53;69.56;98050.95;110942;1259;22072;-82
2023/01/18 00:36:18;;;;;;;121.00;77.50;;;;;;;0.56;69.57;98047.92;111106;1258;21968;-83
2023/01/18 00:38:50;;;;;;;127.50;82.70;;;;;;;0.58;69.49;98045.30;111219;1258;21999;-84
2023/01/18 00:41:20;;;;;;;120.20;76.30;;;;;;;0.60;69.44;98033.92;110671;1264;22021;-83
2023/01/18 00:43:49;;;;;;;97.70;68.40;;;;;;;0.59;69.46;98037.38;110659;1265;22981;-84
2023/01/18 00:46:22;;;;;;;109.70;71.80;;;;;;;0.62;69.57;98041.23;110357;1265;21980;-82
2023/01/18 00:48:52;;;;;;;100.40;67.10;;;;;;;0.64;69.47;98041.49;110352;1265;21995;-83
2023/01/18 00:51:23;;;;;;;89.80;60.00;;;;;;;0.65;69.46;98037.36;110172;1265;21991;-83
2023/01/18 00:53:51;;;;;;;87.40;58.30;;;;;;;0.64;69.38;98039.63;110112;1269;23708;-83
2023/01/18 00:56:21;;;;;;;84.90;57.40;;;;;;;0.64;69.49;98038.57;110309;1268;22352;-83
2023/01/18 00:58:50;;;;;;;99.90;64.10;;;;;;;0.68;69.51;98035.38;110484;1265;21983;-83
2023/01/18 01:01:18;;;;;;;99.80;62.50;;;;;;;0.72;69.48;98033.33;110644;1265;21980;-82
2023/01/18 01:06:44;;;;;;;87.90;61.70;;;;;;;0.77;69.36;98027.70;110749;1263;22155;-83
2023/01/18 01:09:24;;;;;;;80.30;56.80;;;;;;;0.76;69.40;98019.67;110829;1258;21984;-83
2023/01/18 01:26:12;;;;;;;73.80;50.20;;;;;;;0.75;69.33;97983.25;110710;1264;21986;-85
2023/01/18 01:28:44;;;;;;;75.00;54.20;;;;;;;0.76;69.25;97980.80;110515;1263;21990;-87
2023/01/18 01:31:14;;;;;;;69.30;54.70;;;;;;;0.78;69.33;97973.71;110687;1264;22719;-83
2023/01/18 01:33:44;;;;;;;69.90;55.20;;;;;;;0.81;69.44;97972.27;110385;1264;23981;-84
2023/01/18 01:36:20;;;;;;;81.90;61.60;;;;;;;0.84;69.44;97968.39;110741;1264;23026;-84
2023/01/18 01:38:48;;;;;;;73.20;57.10;;;;;;;0.86;69.55;97967.63;110545;1259;22079;-84
2023/01/18 01:41:25;;;;;;;68.30;52.50;;;;;;;0.88;69.49;97970.10;111084;1258;23584;-84
2023/01/18 01:44:26;;;;;;;67.30;49.80;;;;;;;0.90;69.37;97971.58;111102;1258;22746;-83
2023/01/18 01:46:58;;;;;;;70.10;52.10;;;;;;;0.90;69.45;97968.67;110694;1265;22002;-82
2023/01/18 01:49:38;;;;;;;65.50;48.40;;;;;;;0.92;69.45;97965.84;110636;1265;23599;-83
2023/01/18 01:52:12;;;;;;;65.60;47.90;;;;;;;0.92;69.36;97968.77;110455;1265;21999;-82
2023/01/18 01:55:16;;;;;;;58.90;46.90;;;;;;;0.92;69.26;97970.98;110439;1265;21940;-83
2023/01/18 01:57:56;;;;;;;57.70;45.30;;;;;;;0.92;69.48;97962.59;110374;1265;22007;-83
2023/01/18 02:00:25;;;;;;;63.50;45.40;;;;;;;0.95;69.50;97957.37;110491;1265;21987;-82
2023/01/18 02:03:02;;;;;;;68.20;47.00;;;;;;;0.95;69.43;97956.34;110472;1265;22179;-82
2023/01/18 02:05:34;;;;;;;61.00;45.10;;;;;;;0.93;69.53;97951.41;110447;1265;21980;-83
2023/01/18 02:08:10;;;;;;;57.40;43.20;;;;;;;0.95;69.60;97952.89;110618;1265;21955;-83
2023/01/18 02:10:38;;;;;;;53.00;40.90;;;;;;;0.94;69.60;97956.02;110312;1265;23688;-83
2023/01/18 02:13:08;;;;;;;51.70;39.30;;;;;;;0.95;69.73;97959.39;110639;1265;22080;-83
2023/01/18 02:15:58;;;;;;;57.70;41.10;;;;;;;0.98;69.74;97969.89;110568;1265;22057;-82
2023/01/18 02:18:33;;;;;;;56.10;40.90;;;;;;;1.00;69.80;97982.19;110229;1270;21990;-84
2023/01/18 02:21:35;;;;;;;58.80;42.40;;;;;;;1.02;69.83;97979.19;110245;1270;21980;-83
2023/01/18 02:24:06;;;;;;;;;;;;;;;1.02;69.88;97971.13;109816;1270;21962;-83
2023/01/18 02:26:58;;;;;;;60.30;38.90;;;;;;;1.00;70.06;97963.17;110288;1270;23723;-85
2023/01/18 02:29:57;;;;;;;58.10;45.00;;;;;;;1.03;70.01;97962.38;110225;1269;23636;-83
2023/01/18 02:33:04;;;;;;;52.30;38.40;;;;;;;1.05;69.97;97965.55;110141;1269;22994;-81
2023/01/18 02:35:58;;;;;;;54.40;37.50;;;;;;;1.06;69.91;97961.91;110059;1269;21976;-83
2023/01/18 02:38:44;;;;;;;46.90;35.00;;;;;;;1.10;69.90;97957.65;110689;1264;21978;-83
2023/01/18 02:47:28;;;;;;;48.80;34.60;;;;;;;1.20;69.82;97963.27;109632;1271;23738;-83
2023/01/18 02:49:57;;;;;;;66.80;43.50;;;;;;;1.22;69.67;97960.81;109280;1275;23723;-84
2023/01/18 02:52:40;;;;;;;62.60;40.30;;;;;;;1.23;69.67;97960.45;109315;1275;22006;-87
2023/01/18 02:55:49;;;;;;;60.50;38.30;;;;;;;1.22;69.68;97956.01;109360;1275;21990;-84
2023/01/18 02:58:47;;;;;;;55.60;37.90;;;;;;;1.24;69.61;97951.48;109501;1275;22056;-84
2023/01/18 03:01:27;;;;;;;49.20;36.30;;;;;;;1.27;69.65;97950.66;109673;1271;23806;-83
2023/01/18 03:04:32;;;;;;;48.30;35.80;;;;;;;1.30;69.71;97948.98;109805;1267;21977;-82
2023/01/18 03:07:39;;;;;;;43.40;32.10;;;;;;;1.34;69.74;97946.28;110311;1266;21994;-82
2023/01/18 03:10:10;;;;;;;48.00;33.70;;;;;;;1.36;69.83;97942.42;110343;1268;22418;-83
2023/01/18 03:12:52;;;;;;;38.60;32.00;;;;;;;1.39;69.73;97947.45;110617;1264;23732;-83
2023/01/18 03:15:29;;;;;;;44.20;33.00;;;;;;;1.43;69.72;97945.42;110647;1264;21978;-81
2023/01/18 03:18:03;;;;;;;44.10;34.90;;;;;;;1.47;69.85;97947.83;110142;1270;21976;-82
2023/01/18 03:20:38;;;;;;;48.00;35.90;;;;;;;1.52;69.80;97951.58;109431;1274;21996;-82
2023/01/18 03:23:37;;;;;;;39.10;32.00;;;;;;;1.55;69.80;97954.52;109596;1274;22141;-82
2023/01/18 03:26:14;;;;;;;48.00;31.30;;;;;;;1.57;69.70;97953.61;109429;1274;22179;-83
2023/01/18 03:35:02;;;;;;;30.90;24.00;;;;;;;1.68;69.96;97956.27;109601;1274;21994;-83
2023/01/18 03:37:38;;;;;;;31.50;25.00;;;;;;;1.74;69.99;97949.85;110296;1268;22828;-81
2023/01/18 03:40:29;;;;;;;30.10;23.60;;;;;;;1.80;69.90;97948.60;110838;1264;22001;-85
2023/01/18 03:43:15;;;;;;;32.90;25.50;;;;;;;1.85;69.94;97943.23;110529;1264;23708;-81
2023/01/18 03:45:48;;;;;;;30.30;23.20;;;;;;;1.89;69.79;97934.65;110920;1257;21964;-80
2023/01/18 03:48:15;;;;;;;;;;;;;;;1.94;69.86;97937.36;111153;1257;21972;-81
2023/01/18 03:51:01;;;;;;;30.30;21.50;;;;;;;1.92;69.97;97934.18;110988;1257;24198;-82
2023/01/18 03:53:53;;;;;;;28.40;21.00;;;;;;;1.97;69.99;97930.07;110956;1257;22616;-83
2023/01/18 03:56:52;;;;;;;26.50;20.00;;;;;;;2.05;70.03;97929.55;111187;1257;23687;-83
2023/01/18 03:59:20;;;;;;;24.30;18.70;;;;;;;2.12;69.90;97931.33;111339;1257;21983;-82
2023/01/18 04:01:48;;;;;;;25.50;18.00;;;;;;;2.20;69.74;97934.61;111450;1257;23024;-87
2023/01/18 04:04:17;;;;;;;28.00;18.80;;;;;;;2.25;69.63;97938.15;111795;1257;21963;-84
2023/01/18 04:06:45;;;;;;;24.60;18.90;;;;;;;2.32;69.64;97941.10;111060;1257;21984;-83
2023/01/18 04:09:16;;;;;;;25.30;18.90;;;;;;;2.39;69.45;97953.16;111005;1261;22052;-83
2023/01/18 04:11:44;;;;;;;39.30;28.00;;;;;;;2.44;69.27;97955.88;110246;1265;22389;-84
2023/01/18 04:14:12;;;;;;;39.50;27.90;;;;;;;2.47;69.04;97957.81;109550;1273;22249;-85
2023/01/18 04:16:40;;;;;;;32.60;24.20;;;;;;;2.49;68.87;97960.99;109634;1272;21985;-84
2023/01/18 04:19:08;;;;;;;25.80;20.80;;;;;;;2.50;68.70;97961.61;109636;1272;21995;-85
2023/01/18 04:21:37;;;;;;;27.40;22.00;;;;;;;2.52;68.61;97958.27;109254;1276;21983;-84
2023/01/18 04:24:06;;;;;;;34.70;24.20;;;;;;;2.52;68.50;97958.80;109214;1276;23142;-85
2023/01/18 04:26:34;;;;;;;32.80;24.50;;;;;;;2.52;68.39;97958.95;109303;1274;22045;-85
2023/01/18 04:29:02;;;;;;;31.00;25.00;;;;;;;2.53;68.31;97958.92;109383;1271;21981;-86
2023/01/18 04:31:30;;;;;;;34.30;26.40;;;;;;;2.55;68.31;97957.96;109760;1264;22021;-84
2023/01/18 04:33:59;;;;;;;32.10;26.20;;;;;;;2.54;68.01;97957.33;110508;1263;21952;-85
2023/01/18 04:36:27;;;;;;;32.40;26.80;;;;;;;2.51;68.05;97951.10;110485;1262;23580;-86
2023/01/18 04:38:55;;;;;;;30.90;23.90;;;;;;;2.49;68.02;97945.02;110762;1258;22356;-83
2023/01/18 04:41:23;;;;;;;29.80;25.20;;;;;;;2.46;68.01;97938.98;111083;1257;22736;-83
2023/01/18 04:43:51;;;;;;;33.50;25.90;;;;;;;2.41;67.91;97936.76;111031;1258;21967;-85
2023/01/18 04:46:19;;;;;;;34.00;25.40;;;;;;;2.38;68.23;97937.57;111158;1258;22122;-84
2023/01/18 04:48:52;;;;;;;32.70;25.30;;;;;;;2.38;68.19;97935.70;110538;1264;23169;-86
2023/01/18 04:51:22;;;;;;;31.90;25.20;;;;;;;2.35;68.17;97929.13;110155;1268;21997;-85
2023/01/18 04:53:50;;;;;;;31.40;24.70;;;;;;;2.33;68.21;97919.41;110358;1268;21980;-86
2023/01/18 04:56:19;;;;;;;30.80;26.10;;;;;;;2.29;68.28;97914.94;110290;1269;22055;-86
2023/01/18 04:58:47;;;;;;;33.90;25.60;;;;;;;2.27;68.46;97908.02;110228;1269;23730;-86
2023/01/18 05:01:18;;;;;;;32.30;26.80;;;;;;;2.26;68.48;97912.54;110025;1269;22428;-85
2023/01/18 05:03:47;;;;;;;35.70;27.00;;;;;;;2.22;68.57;97911.65;110176;1268;22033;-84
2023/01/18 05:06:18;;;;;;;39.50;28.40;;;;;;;2.19;68.67;97907.68;110478;1264;21969;-85
2023/01/18 05:08:47;;;;;;;34.60;26.90;;;;;;;2.14;68.66;97899.30;110790;1259;21976;-87
2023/01/18 05:11:19;;;;;;;35.20;26.70;;;;;;;2.08;68.77;97901.78;110999;1258;23711;-84
2023/01/18 05:13:47;;;;;;;35.90;28.40;;;;;;;2.05;68.99;97909.46;110996;1258;23069;-85
2023/01/18 05:16:19;;;;;;;34.90;27.60;;;;;;;2.02;69.14;97912.16;111217;1258;21987;-84
2023/01/18 05:18:47;;;;;;;36.40;29.00;;;;;;;2.01;69.33;97922.16;111062;1258;21966;-84
2023/01/18 05:21:16;;;;;;;36.00;29.10;;;;;;;2.02;69.56;97934.65;110806;1262;22057;-84
2023/01/18 05:23:44;;;;;;;35.40;29.10;;;;;;;2.01;69.65;97941.04;110712;1263;22119;-84
2023/01/18 05:26:19;;;;;;;38.10;27.50;;;;;;;2.03;69.81;97943.70;110641;1262;21987;-84
2023/01/18 05:28:49;;;;;;;36.70;28.60;;;;;;;2.03;69.82;97939.39;110630;1264;23619;-84
2023/01/18 05:31:19;;;;;;;42.90;29.40;;;;;;;2.03;69.88;97934.95;110620;1262;21994;-85
2023/01/18 05:33:48;;;;;;;36.60;30.20;;;;;;;2.03;69.99;97936.66;110404;1263;23027;-80
2023/01/18 05:36:16;;;;;;;40.20;32.10;;;;;;;2.03;70.04;97939.25;110243;1263;21964;-83
2023/01/18 05:38:46;;;;;;;39.70;33.50;;;;;;;2.00;70.02;97939.36;110633;1258;21980;-82
2023/01/18 05:41:14;;;;;;;45.10;33.90;;;;;;;2.00;70.17;97940.38;111029;1257;21990;-83
2023/01/18 05:43:42;;;;;;;43.20;34.60;;;;;;;2.03;70.35;97943.52;111174;1257;22721;-82
2023/01/18 05:46:10;;;;;;;48.30;34.90;;;;;;;2.03;70.38;97948.85;111200;1257;22129;-82
2023/01/18 05:48:38;;;;;;;60.70;48.30;;;;;;;2.03;70.53;97945.92;111143;1245;21972;-83
2023/01/18 05:51:10;;;;;;;50.50;35.30;;;;;;;2.05;70.59;97943.46;111161;1256;22417;-84
2023/01/18 05:53:39;;;;;;;49.30;37.10;;;;;;;2.05;70.61;97937.77;111171;1253;21976;-85
2023/01/18 05:56:08;;;;;;;40.50;33.40;;;;;;;2.05;70.69;97934.86;111160;1258;23613;-84
2023/01/18 05:58:37;;;;;;;44.10;32.00;;;;;;;2.02;70.56;97931.71;111073;1258;22004;-84
2023/01/18 06:01:07;;;;;;;40.40;31.10;;;;;;;1.99;70.79;97931.17;111077;1257;21985;-86
2023/01/18 06:03:35;;;;;;;41.00;31.40;;;;;;;1.96;70.95;97929.05;111148;1257;21958;-84
2023/01/18 06:06:03;;;;;;;39.00;30.80;;;;;;;1.95;71.01;97927.03;111150;1257;21981;-82
2023/01/18 06:08:32;;;;;;;38.10;30.90;;;;;;;1.93;71.07;97922.63;110940;1257;22386;-82
2023/01/18 06:11:01;;;;;;;38.80;30.80;;;;;;;1.94;71.32;97920.73;111087;1257;23017;-83
2023/01/18 06:13:31;;;;;;;36.90;28.70;;;;;;;1.95;71.50;97918.45;111389;1257;22021;-83
2023/01/18 06:16:00;;;;;;;39.80;30.90;;;;;;;1.96;71.56;97922.02;111095;1258;21980;-85
2023/01/18 06:18:31;;;;;;;35.80;29.70;;;;;;;1.96;71.56;97924.60;111110;1258;22009;-84
2023/01/18 06:21:01;;;;;;;39.30;30.40;;;;;;;1.96;71.62;97924.42;111174;1258;23018;-83
2023/01/18 06:23:30;;;;;;;38.90;31.50;;;;;;;1.96;71.73;97925.78;111016;1253;22873;-84
2023/01/18 06:25:59;;;;;;;45.40;36.20;;;;;;;1.95;71.80;97923.09;111125;1258;21990;-86
2023/01/18 06:28:27;;;;;;;52.40;41.60;;;;;;;1.95;71.91;97917.60;111097;1258;21966;-85
2023/01/18 06:30:58;;;;;;;54.00;42.90;;;;;;;1.98;72.06;97918.02;111080;1256;23368;-84
2023/01/18 06:33:27;;;;;;;50.30;42.50;;;;;;;2.00;72.15;97913.45;111035;1258;21952;-84
2023/01/18 06:35:55;;;;;;;52.50;42.40;;;;;;;2.03;72.21;97905.80;111194;1250;23021;-86
2023/01/18 06:38:23;;;;;;;47.30;40.10;;;;;;;2.05;72.32;97907.77;110487;1265;22614;-84
2023/01/18 06:40:51;;;;;;;47.90;39.20;;;;;;;2.06;72.37;97909.27;110380;1264;21973;-85
2023/01/18 06:43:19;;;;;;;44.90;37.00;;;;;;;2.05;72.30;97912.91;110162;1264;21985;-85
2023/01/18 06:45:55;;;;;;;48.10;39.10;;;;;;;2.05;72.38;97918.04;109765;1268;21990;-86
2023/01/18 06:48:25;;;;;;;50.40;40.90;;;;;;;2.06;72.51;97922.46;109829;1268;23805;-86
2023/01/18 06:50:56;;;;;;;59.50;48.00;;;;;;;2.08;72.51;97919.13;110081;1268;21993;-85
2023/01/18 06:53:25;;;;;;;62.00;51.10;;;;;;;2.07;72.41;97918.66;109890;1269;23920;-85
2023/01/18 06:55:58;;;;;;;53.00;43.00;;;;;;;2.07;72.52;97917.45;109843;1260;23038;-84
2023/01/18 06:58:28;;;;;;;51.60;42.40;;;;;;;2.07;72.58;97915.23;110476;1263;23698;-84
2023/01/18 07:00:59;;;;;;;56.70;45.20;;;;;;;2.04;72.56;97915.69;110609;1263;22061;-83
2023/01/18 07:03:29;;;;;;;54.60;42.40;;;;;;;2.04;72.61;97914.34;110211;1264;22014;-82
2023/01/18 07:06:00;;;;;;;58.70;43.90;;;;;;;2.04;72.70;97916.02;110499;1263;22796;-83
2023/01/18 07:08:30;;;;;;;66.00;46.00;;;;;;;2.03;72.62;97918.29;110560;1262;22011;-80
2023/01/18 07:11:02;;;;;;;68.60;47.60;;;;;;;2.02;72.75;97916.48;110679;1262;21966;-81
2023/01/18 07:13:30;;;;;;;;;;;;;;;2.00;72.81;97914.69;110845;1262;21968;-81
2023/01/18 07:16:00;;;;;;;56.70;40.10;;;;;;;1.90;72.92;97923.48;110692;1262;21932;-81
2023/01/18 07:18:31;;;;;;;44.80;37.40;;;;;;;1.86;73.04;97929.62;110830;1262;22897;-82
2023/01/18 07:21:06;;;;;;;45.80;35.10;;;;;;;1.87;73.24;97934.41;110684;1258;22036;-86
2023/01/18 07:23:40;;;;;;;43.00;33.70;;;;;;;1.86;73.15;97933.93;111003;1258;21980;-84
2023/01/18 07:26:15;;;;;;;46.20;36.00;;;;;;;1.86;73.18;97935.80;110997;1258;24329;-82
2023/01/18 07:28:46;;;;;;;46.10;36.50;;;;;;;1.86;73.17;97934.60;111181;1257;23084;-84
2023/01/18 07:31:16;;;;;;;50.10;38.10;;;;;;;1.87;73.37;97927.37;111127;1257;21976;-84
2023/01/18 07:33:44;;;;;;;57.10;44.60;;;;;;;1.88;73.46;97927.66;111247;1257;23584;-87
2023/01/18 07:36:13;;;;;;;51.00;41.60;;;;;;;1.91;73.56;97926.16;111200;1246;21968;-86
2023/01/18 07:38:41;;;;;;;44.70;36.00;;;;;;;1.93;73.55;97933.12;111129;1257;23773;-88
2023/01/18 07:41:14;;;;;;;42.90;35.60;;;;;;;1.94;73.53;97935.13;111047;1257;23706;-85
2023/01/18 07:43:43;;;;;;;48.50;39.30;;;;;;;1.97;73.64;97934.66;111185;1257;23596;-85
2023/01/18 07:46:18;;;;;;;52.30;41.10;;;;;;;1.98;73.68;97934.64;111154;1257;22204;-83
2023/01/18 07:48:47;;;;;;;47.30;37.10;;;;;;;1.99;73.69;97932.88;111002;1258;21985;-86
2023/01/18 07:51:15;;;;;;;51.70;40.40;;;;;;;2.00;73.83;97930.27;111003;1257;21936;-85
2023/01/18 07:53:44;;;;;;;45.60;39.50;;;;;;;2.03;73.86;97933.06;110972;1258;23603;-86
2023/01/18 07:56:16;;;;;;;49.00;38.60;;;;;;;2.03;73.71;97928.80;111024;1258;23040;-84
2023/01/18 07:58:44;;;;;;;52.50;39.40;;;;;;;2.03;73.74;97931.35;111114;1257;21981;-86
2023/01/18 08:01:19;;;;;;;51.30;38.80;;;;;;;2.03;73.71;97927.40;110955;1258;22427;-86
2023/01/18 08:03:50;;;;;;;39.90;33.30;;;;;;;2.02;73.77;97924.88;110946;1258;22976;-85
2023/01/18 08:06:24;;;;;;;45.60;35.10;;;;;;;2.00;73.82;97927.70;110999;1258;21983;-85
2023/01/18 08:08:55;;;;;;;40.60;35.20;;;;;;;1.99;73.90;97928.44;111047;1258;23780;-85
2023/01/18 08:11:23;;;;;;;43.30;36.10;;;;;;;1.99;74.04;97928.40;111137;1258;23593;-85
2023/01/18 08:13:52;;;;;;;43.90;38.40;;;;;;;2.01;74.06;97929.22;110990;1246;22059;-85
2023/01/18 08:16:20;;;;;;;44.40;37.40;;;;;;;1.99;73.98;97926.70;110773;1264;22974;-84
2023/01/18 08:18:54;;;;;;;47.90;42.00;;;;;;;2.00;74.09;97924.79;110885;1264;23124;-85
2023/01/18 08:21:23;;;;;;;43.90;38.40;;;;;;;2.00;74.17;97926.67;111051;1264;22006;-84
2023/01/18 08:23:54;;;;;;;45.10;39.10;;;;;;;2.01;74.17;97931.43;110730;1262;22185;-84
2023/01/18 08:26:22;;;;;;;49.50;41.00;;;;;;;2.03;74.29;97932.90;110624;1264;21979;-85
2023/01/18 08:28:50;;;;;;;49.30;42.70;;;;;;;2.06;74.40;97928.81;110779;1264;21998;-85
2023/01/18 08:31:20;;;;;;;52.00;43.70;;;;;;;2.09;74.34;97925.27;110763;1262;21970;-84
2023/01/18 08:33:49;;;;;;;45.00;39.70;;;;;;;2.11;74.44;97926.73;110409;1262;22005;-85
2023/01/18 08:36:21;;;;;;;45.50;38.20;;;;;;;2.13;74.43;97925.95;109998;1268;21985;-86
2023/01/18 08:38:51;;;;;;;45.10;38.10;;;;;;;2.10;74.31;97919.70;110090;1268;22439;-86
2023/01/18 08:41:22;;;;;;;48.10;40.30;;;;;;;2.08;74.27;97918.80;110111;1268;21990;-85
2023/01/18 08:43:51;;;;;;;48.30;37.90;;;;;;;2.06;74.29;97908.58;110124;1268;21995;-84
2023/01/18 08:46:20;;;;;;;49.60;41.30;;;;;;;2.04;74.39;97904.34;109647;1273;22000;-86
2023/01/18 08:48:51;;;;;;;49.10;42.60;;;;;;;2.05;74.54;97906.38;109319;1273;21967;-85
2023/01/18 08:51:21;;;;;;;46.90;41.80;;;;;;;2.05;74.52;97903.98;109491;1270;22438;-84
2023/01/18 08:53:56;;;;;;;55.80;46.50;;;;;;;2.05;74.57;97903.27;109822;1266;22978;-85
2023/01/18 08:56:25;;;;;;;52.40;44.10;;;;;;;2.08;74.75;97898.35;110366;1266;21995;-87
2023/01/18 08:58:53;;;;;;;51.70;43.90;;;;;;;2.11;74.62;97904.05;110452;1266;23062;-85
2023/01/18 09:01:22;;;;;;;42.20;37.60;;;;;;;2.13;74.62;97907.42;110503;1266;23084;-86
2023/01/18 09:03:54;;;;;;;45.20;39.20;;;;;;;2.13;74.71;97907.77;110221;1259;21999;-86
2023/01/18 09:06:23;;;;;;;45.80;40.60;;;;;;;2.13;74.69;97906.20;110966;1258;23023;-84
2023/01/18 09:08:51;;;;;;;46.10;41.10;;;;;;;2.16;74.69;97912.09;111115;1258;22758;-84
2023/01/18 09:11:19;;;;;;;48.70;40.90;;;;;;;2.18;74.82;97913.06;110428;1263;23126;-84
2023/01/18 09:13:47;;;;;;;44.30;39.60;;;;;;;2.18;74.75;97908.91;110477;1264;22739;-85
2023/01/18 09:16:29;;;;;;;45.70;40.70;;;;;;;2.18;74.78;97910.30;109704;1270;21993;-86
2023/01/18 09:18:58;;;;;;;54.60;46.50;;;;;;;2.18;74.72;97906.84;109225;1267;23045;-85
2023/01/18 09:21:27;;;;;;;54.90;49.00;;;;;;;2.17;74.65;97911.34;109550;1275;22068;-84
2023/01/18 09:23:55;;;;;;;55.60;48.40;;;;;;;2.17;74.70;97911.89;109505;1274;21985;-86
2023/01/18 09:26:24;;;;;;;55.20;49.20;;;;;;;2.19;74.76;97911.09;109623;1274;21997;-85
2023/01/18 09:28:52;;;;;;;55.00;49.00;;;;;;;2.21;74.79;97911.19;109519;1270;21992;-84
2023/01/18 09:31:25;;;;;;;63.10;52.10;;;;;;;2.22;74.89;97911.16;109951;1269;22913;-85
2023/01/18 09:33:55;;;;;;;62.30;55.40;;;;;;;2.25;74.96;97911.22;109775;1262;22720;-87
2023/01/18 09:36:29;;;;;;;67.50;59.30;;;;;;;2.28;75.00;97913.50;110639;1258;22717;-85
2023/01/18 09:38:57;;;;;;;66.70;59.40;;;;;;;2.29;74.97;97916.34;111110;1258;21963;-88
2023/01/18 09:41:48;;;;;;;68.20;60.30;;;;;;;2.27;74.79;97917.45;111067;1258;23641;-87
2023/01/18 09:44:37;;;;;;;66.90;57.90;;;;;;;2.23;74.81;97918.48;110659;1264;22044;-85
2023/01/18 09:47:27;;;;;;;72.20;57.30;;;;;;;2.23;74.94;97922.59;110738;1264;22049;-85
2023/01/18 09:49:58;;;;;;;61.00;51.10;;;;;;;2.25;74.90;97928.73;109313;1263;1627702;-84
2023/01/18 09:52:48;;;;;;;63.30;49.40;;;;;;;2.25;74.91;97933.99;110938;1258;23624;-86
2023/01/18 09:55:55;;;;;;;64.60;54.10;;;;;;;2.25;75.00;97937.12;110770;1264;21986;-86
2023/01/18 09:58:57;;;;;;;67.00;55.00;;;;;;;2.25;74.98;97937.81;110714;1264;21968;-87
2023/01/18 10:01:30;;;;;;;;;;;;;;;2.25;74.97;97937.96;110634;1265;21975;-82
2023/01/18 10:04:35;;;;;;;63.80;56.50;;;;;;;2.19;75.19;97937.88;110766;1263;24586;-81
2023/01/18 10:07:11;;;;;;;66.90;57.10;;;;;;;2.18;75.17;97938.11;111008;1262;21966;-83
2023/01/18 10:09:56;;;;;;;68.60;59.50;;;;;;;2.23;75.44;97937.20;110734;1262;21991;-82
2023/01/18 10:12:52;;;;;;;65.00;58.10;;;;;;;2.27;75.30;97942.66;110530;1262;22038;-82
2023/01/18 10:15:33;;;;;;;61.70;49.60;;;;;;;2.30;75.30;97943.60;110862;1262;22763;-83
2023/01/18 10:18:01;;;;;;;57.10;51.00;;;;;;;2.29;74.92;97945.72;110767;1262;21993;-83
2023/01/18 10:20:45;;;;;;;58.40;51.20;;;;;;;2.28;74.88;97943.16;110778;1262;22008;-84
2023/01/18 10:23:47;;;;;;;58.20;52.30;;;;;;;2.27;74.89;97947.52;111573;1258;22758;-84
2023/01/18 10:26:30;;;;;;;56.40;48.70;;;;;;;2.23;74.76;97945.60;111347;1258;22025;-83
2023/01/18 10:29:25;;;;;;;56.50;50.40;;;;;;;2.21;74.71;97943.82;111097;1258;22007;-82
2023/01/18 10:32:01;;;;;;;52.00;46.50;;;;;;;2.16;74.74;97944.87;111244;1258;22000;-83
2023/01/18 10:34:40;;;;;;;54.20;48.20;;;;;;;2.15;74.72;97947.65;111126;1258;23587;-83
2023/01/18 10:37:42;;;;;;;55.90;50.00;;;;;;;2.14;74.67;97949.08;111207;1258;21962;-82
2023/01/18 10:40:13;;;;;;;53.40;47.60;;;;;;;2.12;74.79;97949.33;111046;1258;21971;-85
2023/01/18 10:42:48;;;;;;;50.90;44.60;;;;;;;2.12;74.83;97951.38;111416;1257;22055;-83
2023/01/18 10:45:33;;;;;;;51.30;44.50;;;;;;;2.12;74.77;97946.39;111076;1258;22003;-83
2023/01/18 10:48:30;;;;;;;48.00;42.50;;;;;;;2.09;74.72;97941.21;111177;1258;21960;-83
2023/01/18 10:51:05;;;;;;;48.00;42.90;;;;;;;2.07;74.82;97943.86;111269;1258;21956;-84
2023/01/18 10:53:37;;;;;;;46.90;41.80;;;;;;;2.07;74.84;97944.38;111215;1258;23052;-85
2023/01/18 10:56:24;;;;;;;47.50;42.30;;;;;;;2.07;74.71;97943.52;110994;1258;22971;-84
2023/01/18 10:58:58;;;;;;;49.90;44.50;;;;;;;2.06;74.70;97943.08;111145;1253;22034;-83
2023/01/18 11:01:32;;;;;;;51.00;44.40;;;;;;;2.05;74.81;97945.30;111179;1258;22434;-84
2023/01/18 11:04:21;;;;;;;46.80;42.10;;;;;;;2.05;74.93;97948.23;110825;1266;23655;-83
2023/01/18 11:06:54;;;;;;;49.00;43.40;;;;;;;2.05;74.90;97947.23;110460;1266;23043;-84
2023/01/18 11:09:40;;;;;;;46.10;41.30;;;;;;;2.04;74.69;97952.91;110638;1265;21976;-83
2023/01/18 11:12:51;;;;;;;45.30;40.40;;;;;;;2.02;74.78;97951.98;110830;1265;24359;-84
2023/01/18 11:15:42;;;;;;;45.00;40.10;;;;;;;2.00;74.80;97954.98;109965;1271;23113;-83
2023/01/18 11:18:12;;;;;;;55.30;43.70;;;;;;;1.98;74.80;97952.14;109463;1275;23048;-84
2023/01/18 11:20:49;;;;;;;56.20;44.50;;;;;;;1.99;74.86;97953.66;109365;1279;21995;-83
2023/01/18 11:23:27;;;;;;;55.40;45.90;;;;;;;2.00;74.97;97955.66;109611;1275;23150;-85
2023/01/18 11:26:14;;;;;;;56.10;48.50;;;;;;;2.02;74.98;97959.51;109806;1272;22257;-83
2023/01/18 11:29:06;;;;;;;58.70;51.50;;;;;;;2.02;74.88;97958.48;109656;1274;22013;-83
2023/01/18 11:31:48;;;;;;;57.40;51.20;;;;;;;2.02;74.78;97963.64;109615;1275;22012;-81
2023/01/18 11:34:37;;;;;;;58.00;51.80;;;;;;;2.02;74.78;97970.84;109044;1281;21988;-84
2023/01/18 11:37:33;;;;;;;54.90;48.90;;;;;;;2.04;75.02;97970.07;108954;1282;23128;-84
2023/01/18 11:40:21;;;;;;;56.70;49.70;;;;;;;2.07;75.01;97974.93;108960;1283;23014;-84
2023/01/18 11:42:52;;;;;;;54.10;48.30;;;;;;;2.07;75.07;97977.33;108822;1285;22015;-84
2023/01/18 11:46:00;;;;;;;55.00;49.30;;;;;;;2.10;74.93;97979.61;108741;1286;22047;-82
2023/01/18 11:48:56;;;;;;;57.40;49.40;;;;;;;2.06;74.92;97979.60;108374;1290;22004;-84
2023/01/18 11:51:56;;;;;;;57.00;48.90;;;;;;;2.04;74.82;97982.94;108472;1283;22016;-86
2023/01/18 11:54:45;;;;;;;55.80;49.70;;;;;;;2.05;74.97;97983.92;108791;1278;22501;-83
2023/01/18 11:57:14;;;;;;;56.30;47.80;;;;;;;2.08;75.00;97988.27;109254;1274;21984;-85
2023/01/18 11:59:45;;;;;;;63.90;51.50;;;;;;;2.11;75.08;97990.55;109677;1273;21993;-85
2023/01/18 12:02:23;;;;;;;64.70;54.40;;;;;;;2.14;75.13;97996.76;110171;1267;24551;-83
2023/01/18 12:05:02;;;;;;;68.10;53.80;;;;;;;2.14;75.00;98000.89;109777;1270;23072;-86
2023/01/18 12:08:09;;;;;;;61.90;51.60;;;;;;;2.11;74.87;98004.59;110058;1270;21872;-84
2023/01/18 12:11:06;;;;;;;59.80;50.90;;;;;;;2.10;75.02;98006.55;110093;1269;22001;-86
2023/01/18 12:14:00;;;;;;;61.10;49.10;;;;;;;2.08;74.93;98007.11;110145;1270;22016;-85
2023/01/18 12:17:21;;;;;;;61.10;52.90;;;;;;;2.08;75.00;98009.02;110374;1270;24393;-83
2023/01/18 12:19:58;;;;;;;58.60;52.20;;;;;;;2.07;75.00;98013.70;110290;1269;23816;-82
2023/01/18 12:23:01;;;;;;;54.20;47.50;;;;;;;2.08;74.96;98015.89;110104;1266;21985;-82
2023/01/18 12:26:16;;;;;;;54.80;45.20;;;;;;;2.06;74.99;98016.64;110791;1257;23048;-82